createdAt,value
2019-02-12T00:00:10.439Z,3.50
2019-02-12T00:01:11.826Z,3.44
2019-02-12T00:02:13.208Z,3.42
2019-02-12T00:03:14.588Z,3.35
2019-02-12T00:04:15.968Z,3.39
2019-02-12T00:05:17.350Z,3.49
2019-02-12T00:06:18.734Z,3.39
2019-02-12T00:07:20.134Z,3.39
2019-02-12T00:08:21.509Z,3.28
2019-02-12T00:09:22.888Z,3.35
2019-02-12T00:10:24.268Z,3.34
2019-02-12T00:11:25.653Z,3.31
2019-02-12T00:12:27.039Z,3.31
2019-02-12T00:13:28.422Z,3.33
2019-02-12T00:14:29.806Z,3.35
2019-02-12T00:15:31.188Z,3.26
2019-02-12T00:16:32.573Z,3.28
2019-02-12T00:17:33.950Z,3.28
2019-02-12T00:18:35.334Z,3.20
2019-02-12T00:19:36.728Z,3.22
2019-02-12T00:20:38.106Z,3.22
2019-02-12T00:21:39.495Z,3.22
2019-02-12T00:22:40.878Z,3.23
2019-02-12T00:23:42.260Z,3.23
2019-02-12T00:24:43.644Z,3.20
2019-02-12T00:25:45.031Z,3.22
2019-02-12T00:26:46.423Z,3.16
2019-02-12T00:27:47.803Z,3.12
2019-02-12T00:28:49.189Z,3.16
2019-02-12T00:29:50.573Z,3.10
2019-02-12T00:30:51.959Z,3.08
2019-02-12T00:31:53.335Z,3.17
2019-02-12T00:32:54.734Z,3.19
2019-02-12T00:33:56.919Z,3.15
2019-02-12T00:34:58.308Z,3.15
2019-02-12T00:35:59.686Z,3.20
2019-02-12T00:37:01.071Z,3.26
2019-02-12T00:38:02.463Z,3.19
2019-02-12T00:39:03.880Z,3.20
2019-02-12T00:40:05.266Z,3.16
2019-02-12T00:41:06.645Z,3.26
2019-02-12T00:42:08.038Z,3.30
2019-02-12T00:43:09.421Z,3.34
2019-02-12T00:44:10.818Z,3.34
2019-02-12T00:45:12.206Z,3.23
2019-02-12T00:46:13.618Z,3.33
2019-02-12T00:47:15.010Z,3.44
2019-02-12T00:48:16.404Z,3.42
2019-02-12T00:49:17.789Z,3.35
2019-02-12T00:50:19.179Z,3.42
2019-02-12T00:51:20.565Z,3.39
2019-02-12T00:52:21.943Z,3.41
2019-02-12T00:53:23.329Z,3.42
2019-02-12T00:54:24.724Z,3.46
2019-02-12T00:55:26.105Z,3.42
2019-02-12T00:56:27.493Z,3.46
2019-02-12T00:57:28.867Z,3.45
2019-02-12T00:58:30.258Z,3.45
2019-02-12T00:59:31.640Z,3.39
2019-02-12T01:00:33.023Z,3.44
2019-02-12T01:01:34.416Z,3.44
2019-02-12T01:02:35.812Z,3.50
2019-02-12T01:03:37.197Z,3.53
2019-02-12T01:04:38.591Z,3.59
2019-02-12T01:05:39.977Z,3.59
2019-02-12T01:06:41.366Z,3.54
2019-02-12T01:07:42.769Z,3.57
2019-02-12T01:08:44.150Z,3.57
2019-02-12T01:09:45.558Z,3.52
2019-02-12T01:10:46.971Z,3.68
2019-02-12T01:11:48.324Z,3.68
2019-02-12T01:12:49.719Z,3.67
2019-02-12T01:13:51.095Z,3.67
2019-02-12T01:14:52.498Z,3.67
2019-02-12T01:15:53.889Z,3.63
2019-02-12T01:16:55.265Z,3.64
2019-02-12T01:17:56.675Z,3.63
2019-02-12T01:18:58.047Z,3.71
2019-02-12T01:19:59.425Z,3.62
2019-02-12T01:21:00.819Z,3.74
2019-02-12T01:22:02.193Z,3.70
2019-02-12T01:23:03.589Z,3.74
2019-02-12T01:24:04.981Z,3.74
2019-02-12T01:25:06.366Z,3.77
2019-02-12T01:26:07.760Z,3.77
2019-02-12T01:27:09.149Z,3.78
2019-02-12T01:28:10.534Z,3.75
2019-02-12T01:29:11.913Z,3.78
2019-02-12T01:30:13.302Z,3.81
2019-02-12T01:31:14.688Z,3.77
2019-02-12T01:32:16.076Z,3.77
2019-02-12T01:33:17.467Z,3.72
2019-02-12T01:34:18.854Z,3.78
2019-02-12T01:35:20.239Z,3.71
2019-02-12T01:36:21.620Z,3.72
2019-02-12T01:37:22.998Z,3.72
2019-02-12T01:38:24.384Z,3.74
2019-02-12T01:39:25.771Z,3.80
2019-02-12T01:40:27.170Z,3.80
2019-02-12T01:41:28.568Z,3.75
2019-02-12T01:42:29.983Z,3.78
2019-02-12T01:43:31.376Z,3.80
2019-02-12T01:44:32.764Z,3.88
2019-02-12T01:45:34.153Z,3.89
2019-02-12T01:46:35.535Z,3.86
2019-02-12T01:47:36.927Z,3.88
2019-02-12T01:48:38.318Z,3.86
2019-02-12T01:49:39.707Z,3.92
2019-02-12T01:50:41.095Z,3.84
2019-02-12T01:51:42.474Z,3.86
2019-02-12T01:52:43.863Z,3.82
2019-02-12T01:53:45.250Z,3.93
2019-02-12T01:54:46.649Z,3.95
2019-02-12T01:55:48.031Z,3.98
2019-02-12T01:56:49.424Z,3.95
2019-02-12T01:57:50.801Z,4.00
2019-02-12T01:58:52.188Z,3.98
2019-02-12T01:59:53.606Z,4.00
2019-02-12T02:00:54.997Z,3.95
2019-02-12T02:01:56.394Z,3.90
2019-02-12T02:02:57.780Z,4.04
2019-02-12T02:03:59.170Z,4.00
2019-02-12T02:05:00.552Z,3.92
2019-02-12T02:06:01.947Z,4.04
2019-02-12T02:07:03.373Z,4.04
2019-02-12T02:08:04.727Z,4.06
2019-02-12T02:09:06.130Z,4.04
2019-02-12T02:10:07.510Z,3.98
2019-02-12T07:10:45.877Z,1.85
2019-02-12T07:11:47.268Z,1.85
2019-02-12T07:12:48.654Z,1.89
2019-02-12T07:13:50.048Z,1.90
2019-02-12T07:14:51.439Z,1.92
2019-02-12T07:15:52.848Z,1.88
2019-02-12T07:16:54.296Z,1.90
2019-02-12T07:17:55.664Z,2.02
2019-02-12T07:18:57.058Z,2.00
2019-02-12T07:19:58.462Z,1.98
2019-02-12T07:20:59.890Z,1.93
2019-02-12T07:22:01.328Z,2.04
2019-02-12T07:23:02.732Z,2.04
2019-02-12T07:24:04.130Z,1.95
2019-02-12T07:25:05.536Z,2.09
2019-02-12T07:26:06.928Z,2.12
2019-02-12T07:27:08.350Z,2.07
2019-02-12T07:28:09.752Z,2.18
2019-02-12T07:29:11.145Z,2.19
2019-02-12T07:30:12.539Z,2.14
2019-02-12T07:31:14.009Z,2.25
2019-02-12T07:32:15.416Z,2.27
2019-02-12T07:33:16.824Z,2.32
2019-02-12T07:34:18.221Z,2.33
2019-02-12T07:35:19.629Z,2.36
2019-02-12T07:36:21.032Z,2.40
2019-02-12T07:37:22.419Z,2.32
2019-02-12T07:38:23.827Z,2.45
2019-02-12T17:47:26.275Z,2.29
2019-02-12T17:48:28.387Z,2.30
2019-02-12T17:49:29.769Z,2.26
2019-02-12T17:50:31.156Z,2.40
2019-02-12T17:51:32.541Z,2.37
2019-02-12T17:52:33.922Z,2.40
2019-02-12T17:53:35.324Z,2.29
2019-02-12T17:54:36.709Z,2.37
2019-02-12T17:55:38.126Z,2.36
2019-02-12T17:56:39.550Z,2.36
2019-02-12T17:57:40.963Z,2.36
2019-02-12T17:58:42.399Z,2.29
2019-02-12T17:59:43.845Z,2.29
2019-02-12T18:00:45.245Z,2.38
2019-02-12T18:01:46.652Z,2.37
2019-02-12T18:02:48.046Z,2.44
2019-02-12T18:03:49.432Z,2.43
2019-02-12T18:04:50.814Z,2.48
2019-02-12T18:05:52.205Z,2.51
2019-02-12T18:06:53.586Z,2.47
2019-02-12T18:07:54.984Z,2.53
2019-02-12T18:08:56.374Z,2.50
2019-02-12T18:09:57.776Z,2.44
2019-02-12T18:10:59.158Z,2.48
2019-02-12T18:12:00.545Z,2.48
2019-02-12T18:13:04.803Z,2.47
2019-02-12T18:14:06.182Z,2.47
2019-02-12T18:15:07.571Z,2.55
2019-02-12T18:16:08.952Z,2.53
2019-02-12T18:17:10.341Z,2.61
2019-02-12T18:18:11.718Z,2.63
2019-02-12T18:19:13.110Z,2.61
2019-02-12T18:20:14.529Z,2.59
2019-02-12T18:21:15.945Z,2.66
2019-02-12T18:22:17.358Z,2.66
2019-02-12T18:23:18.795Z,2.48
2019-02-12T18:24:20.145Z,2.61
2019-02-12T18:25:21.535Z,2.56
2019-02-12T18:26:22.919Z,2.68
2019-02-12T18:27:24.306Z,2.65
2019-02-12T18:28:25.779Z,2.61
2019-02-12T18:29:27.203Z,2.62
2019-02-12T18:30:28.588Z,2.65
2019-02-12T18:31:30.707Z,2.65
2019-02-12T18:32:32.102Z,2.66
2019-02-12T18:33:33.502Z,2.63
2019-02-12T18:34:34.912Z,2.58
2019-02-12T18:35:36.291Z,2.61
2019-02-12T18:36:37.669Z,2.65
2019-02-12T18:37:39.065Z,2.66
2019-02-12T18:38:40.462Z,2.74
2019-02-12T18:39:41.856Z,2.73
2019-02-12T18:40:43.244Z,2.69
2019-02-12T18:41:44.634Z,2.69
2019-02-12T18:42:46.039Z,2.65
2019-02-12T18:43:47.434Z,2.73
2019-02-12T18:44:48.821Z,2.62
2019-02-12T18:45:50.209Z,2.71
2019-02-12T18:46:51.608Z,2.68
2019-02-12T18:47:53.007Z,2.74
2019-02-12T18:48:54.396Z,2.81
2019-02-12T18:49:55.788Z,2.80
2019-02-12T18:50:57.187Z,2.84
2019-02-12T18:51:58.573Z,2.81
2019-02-12T18:52:59.962Z,2.79
2019-02-12T18:54:01.355Z,2.80
2019-02-12T18:55:02.767Z,2.89
2019-02-12T18:56:04.163Z,2.87
2019-02-12T18:57:05.583Z,2.92
2019-02-12T18:58:06.988Z,2.80
2019-02-12T18:59:08.379Z,2.86
2019-02-12T19:00:09.762Z,2.92
2019-02-12T19:01:11.165Z,2.92
2019-02-12T19:02:12.542Z,2.87
2019-02-12T19:03:13.966Z,2.86
2019-02-12T19:04:15.359Z,2.81
2019-02-12T19:05:16.750Z,2.89
2019-02-12T19:06:18.133Z,2.89
2019-02-12T19:07:19.518Z,2.87
2019-02-12T19:08:20.913Z,2.87
2019-02-12T19:09:22.308Z,2.84
2019-02-12T19:10:23.698Z,2.84
2019-02-12T19:11:25.081Z,2.89
2019-02-12T19:12:26.467Z,2.84
2019-02-12T19:13:27.860Z,2.80
2019-02-12T19:14:29.253Z,2.99
2019-02-12T19:15:30.631Z,2.83
2019-02-12T19:16:32.015Z,2.86
2019-02-12T19:17:33.412Z,2.86
2019-02-12T19:18:34.796Z,2.87
2019-02-12T19:19:36.185Z,2.86
2019-02-12T19:20:38.501Z,2.83
2019-02-12T19:21:39.897Z,2.86
2019-02-12T19:22:41.305Z,2.89
2019-02-12T19:23:42.703Z,2.84
2019-02-12T19:24:44.086Z,2.89
2019-02-12T19:25:45.473Z,2.86
2019-02-12T19:26:49.938Z,2.83
2019-02-12T19:27:48.267Z,2.87
2019-02-12T19:28:50.185Z,2.86
2019-02-12T19:29:51.034Z,2.89
2019-02-12T19:30:52.434Z,2.87
2019-02-12T19:31:59.116Z,2.86
2019-02-12T19:32:55.229Z,2.92
2019-02-12T19:33:56.629Z,2.92
2019-02-12T19:34:58.030Z,2.89
2019-02-12T19:36:00.032Z,2.81
2019-02-12T19:37:01.436Z,2.80
2019-02-12T19:38:02.844Z,2.84
2019-02-12T19:39:04.258Z,2.84
2019-02-12T19:40:05.655Z,2.80
2019-02-12T19:41:07.054Z,2.86
2019-02-12T19:42:08.467Z,2.84
2019-02-12T19:43:09.861Z,2.84
2019-02-12T19:44:11.265Z,2.81
2019-02-12T19:45:12.679Z,2.81
2019-02-12T19:46:14.074Z,2.81
2019-02-12T19:47:15.515Z,2.90
2019-02-12T19:48:16.918Z,2.83
2019-02-12T19:49:18.341Z,2.90
2019-02-12T19:50:19.732Z,2.89
2019-02-12T19:51:21.125Z,2.86
2019-02-12T19:52:23.503Z,2.86
2019-02-12T19:53:24.957Z,2.90
2019-02-12T19:54:26.361Z,3.02
2019-02-12T19:55:27.790Z,2.83
2019-02-12T19:56:29.214Z,2.83
2019-02-12T19:57:31.589Z,2.83
2019-02-12T19:58:33.019Z,2.95
2019-02-12T19:59:35.316Z,2.97
2019-02-12T20:00:37.639Z,2.97
2019-02-12T20:01:39.052Z,3.04
2019-02-12T20:02:41.323Z,3.10
2019-02-12T20:03:42.730Z,3.01
2019-02-12T20:04:44.142Z,3.04
2019-02-12T20:05:46.418Z,2.99
2019-02-12T20:06:48.762Z,2.99
2019-02-12T20:07:50.646Z,3.02
2019-02-12T20:08:51.568Z,3.08
2019-02-12T20:09:53.003Z,3.04
2019-02-12T20:10:54.421Z,3.13
2019-02-12T20:11:56.602Z,3.12
2019-02-12T20:12:57.994Z,3.16
2019-02-12T20:13:59.419Z,3.15
2019-02-12T20:15:00.822Z,3.23
2019-02-12T20:16:02.241Z,3.20
2019-02-12T20:17:03.698Z,3.30
2019-02-12T20:18:05.094Z,3.23
2019-02-12T20:19:06.511Z,3.28
2019-02-12T20:20:07.913Z,3.23
2019-02-12T20:21:10.272Z,3.20
2019-02-12T20:22:11.672Z,3.23
2019-02-12T20:23:13.086Z,3.19
2019-02-12T20:24:14.489Z,3.23
2019-02-12T20:25:15.916Z,3.31
2019-02-12T20:26:17.375Z,3.35
2019-02-12T20:27:18.769Z,3.28
2019-02-12T20:28:20.173Z,3.26
2019-02-12T20:29:21.584Z,3.26
2019-02-12T20:30:22.979Z,3.19
2019-02-12T20:31:24.378Z,3.20
2019-02-12T20:32:25.774Z,3.25
2019-02-12T20:33:27.173Z,3.28
2019-02-12T20:34:28.578Z,3.20
2019-02-12T20:35:36.273Z,3.26
2019-02-12T20:36:31.362Z,3.28
2019-02-12T20:37:32.778Z,3.39
2019-02-12T20:38:34.784Z,3.39
2019-02-12T20:39:36.196Z,3.39
2019-02-12T20:40:37.586Z,3.42
2019-02-12T20:41:39.014Z,3.45
2019-02-12T20:42:40.434Z,3.42
2019-02-12T20:43:41.817Z,3.39
2019-02-12T20:44:43.246Z,3.42
2019-02-12T20:45:44.656Z,3.41
2019-02-12T20:46:46.074Z,3.45
2019-02-12T20:47:47.476Z,3.41
2019-02-12T20:48:49.423Z,3.44
2019-02-12T20:49:50.801Z,3.41
2019-02-12T20:50:52.222Z,3.42
2019-02-12T20:51:53.615Z,3.50
2019-02-12T20:52:55.003Z,3.45
2019-02-12T20:53:56.402Z,3.46
2019-02-12T20:54:57.824Z,3.53
2019-02-12T20:55:59.218Z,3.49
2019-02-12T20:57:00.610Z,3.50
2019-02-12T20:58:02.018Z,3.50
2019-02-12T20:59:03.396Z,3.52
2019-02-12T21:00:04.812Z,3.57
2019-02-12T21:01:06.196Z,3.54
2019-02-12T21:02:07.580Z,3.54
2019-02-12T21:03:08.993Z,3.56
2019-02-12T21:04:10.415Z,3.50
2019-02-12T21:05:11.814Z,3.59
2019-02-12T21:06:13.251Z,3.59
2019-02-12T21:07:14.636Z,3.57
2019-02-12T21:08:16.039Z,3.63
2019-02-12T21:09:17.451Z,3.67
2019-02-12T21:10:18.831Z,3.62
2019-02-12T21:11:20.227Z,3.63
2019-02-12T21:12:21.627Z,3.70
2019-02-12T21:13:23.027Z,3.70
2019-02-12T21:14:24.407Z,3.63
2019-02-12T21:15:25.798Z,3.64
2019-02-12T21:16:27.223Z,3.74
2019-02-12T21:17:28.661Z,3.72
2019-02-12T21:18:30.038Z,3.77
2019-02-12T21:19:31.457Z,3.75
2019-02-12T21:20:32.851Z,3.80
2019-02-12T21:21:34.244Z,3.70
2019-02-12T21:22:35.634Z,3.75
2019-02-12T21:23:37.022Z,3.77
2019-02-12T21:24:38.427Z,3.75
2019-02-12T21:25:39.821Z,3.78
2019-02-12T21:26:41.204Z,3.77
2019-02-12T21:27:42.586Z,3.78
2019-02-12T21:28:43.978Z,3.81
2019-02-12T21:29:45.364Z,3.81
2019-02-12T21:30:46.745Z,3.80
2019-02-12T21:31:48.138Z,3.78
2019-02-12T21:32:49.526Z,3.82
2019-02-12T21:33:50.915Z,3.81
2019-02-12T21:34:52.315Z,3.82
2019-02-12T21:35:53.740Z,3.90
2019-02-12T21:36:55.123Z,3.90
2019-02-12T21:37:56.521Z,3.88
2019-02-12T21:38:57.914Z,3.88
2019-02-12T21:39:59.302Z,3.81
2019-02-12T21:41:00.717Z,3.92
2019-02-12T21:42:02.084Z,3.92
2019-02-12T21:43:03.467Z,3.90
2019-02-12T21:44:04.854Z,3.88
2019-02-12T21:45:06.249Z,3.77
2019-02-12T21:46:07.658Z,3.86
2019-02-12T21:47:09.065Z,3.86
2019-02-12T21:48:10.455Z,3.78
2019-02-12T21:49:11.844Z,3.78
2019-02-12T21:50:13.232Z,3.77
2019-02-12T21:51:14.623Z,3.82
2019-02-12T21:52:16.016Z,3.80
2019-02-12T21:53:17.419Z,3.86
2019-02-12T21:54:18.802Z,3.78
2019-02-12T21:55:20.196Z,3.88
2019-02-12T21:56:21.580Z,3.88
2019-02-12T21:57:22.976Z,3.80
2019-02-12T21:58:24.366Z,3.82
2019-02-12T21:59:25.766Z,3.80
2019-02-12T22:00:27.151Z,3.81
2019-02-12T22:01:28.532Z,3.86
2019-02-12T22:02:29.929Z,3.89
2019-02-12T22:03:31.314Z,3.88
2019-02-12T22:04:32.731Z,3.84
2019-02-12T22:05:34.108Z,3.89
2019-02-12T22:06:35.531Z,3.84
2019-02-12T22:07:36.919Z,3.81
2019-02-12T22:08:38.298Z,3.86
2019-02-12T22:09:39.691Z,3.89
2019-02-12T22:10:46.184Z,3.86
2019-02-12T22:11:42.449Z,3.90
2019-02-12T22:12:43.843Z,3.89
2019-02-12T22:13:45.235Z,3.93
2019-02-12T22:14:46.633Z,3.84
2019-02-12T22:15:48.040Z,3.96
2019-02-12T22:16:49.413Z,3.92
2019-02-12T22:17:50.809Z,3.92
2019-02-12T22:18:52.201Z,3.89
2019-02-12T22:19:53.599Z,3.93
2019-02-12T22:20:55.005Z,3.92
2019-02-12T22:21:56.397Z,3.93
2019-02-12T22:22:57.797Z,3.98
2019-02-12T22:23:59.204Z,3.98
2019-02-12T22:25:00.590Z,4.04
2019-02-12T22:26:01.984Z,4.04
2019-02-12T22:27:03.374Z,4.02
2019-02-12T22:28:04.758Z,4.06
2019-02-12T22:29:06.405Z,4.04
2019-02-12T22:30:07.490Z,4.06
2019-02-12T22:31:08.881Z,4.04
2019-02-12T22:32:10.277Z,4.08
2019-02-12T22:33:11.656Z,4.08
2019-02-12T22:34:13.047Z,4.10
2019-02-12T22:35:14.687Z,4.14
2019-02-12T22:36:15.798Z,4.14
2019-02-12T22:37:17.188Z,4.16
2019-02-12T22:38:18.569Z,4.16
2019-02-12T22:39:19.959Z,4.17
2019-02-12T22:40:21.347Z,4.14
2019-02-12T22:41:22.741Z,4.21
2019-02-12T22:42:24.135Z,4.28
2019-02-12T22:43:25.523Z,4.16
2019-02-12T22:44:26.909Z,4.28
2019-02-12T22:45:28.307Z,4.20
2019-02-12T22:46:29.695Z,4.10
2019-02-12T22:47:31.078Z,4.07
2019-02-12T22:48:32.467Z,4.00
2019-02-12T22:49:33.855Z,3.98
2019-02-12T22:50:35.246Z,4.00
2019-02-12T22:51:36.630Z,4.06
2019-02-12T22:52:38.019Z,4.04
2019-02-12T22:53:39.420Z,3.99
2019-02-12T22:54:40.806Z,4.07
2019-02-12T22:55:42.197Z,4.10
2019-02-12T22:56:43.594Z,4.06
2019-02-12T22:57:49.182Z,4.07
2019-02-12T22:58:46.340Z,4.06
2019-02-12T22:59:47.739Z,3.99
2019-02-12T23:00:49.136Z,4.02
2019-02-12T23:01:50.514Z,4.13
2019-02-12T23:02:51.907Z,4.13
2019-02-12T23:03:53.298Z,4.20
2019-02-12T23:04:54.686Z,4.04
2019-02-12T23:05:56.071Z,4.08
2019-02-12T23:06:57.448Z,4.07
2019-02-12T23:07:58.845Z,4.06
2019-02-12T23:09:00.235Z,4.16
2019-02-12T23:10:01.613Z,4.13
2019-02-12T23:11:02.999Z,4.17
2019-02-12T23:12:04.388Z,4.17
2019-02-12T23:13:05.776Z,4.17
2019-02-12T23:14:07.165Z,4.13
2019-02-12T23:15:08.599Z,4.14
2019-02-12T23:16:09.929Z,4.16
2019-02-12T23:17:11.321Z,4.16
2019-02-12T23:18:12.733Z,4.08
2019-02-12T23:19:14.122Z,4.13
2019-02-12T23:20:15.510Z,4.11
2019-02-12T23:21:16.894Z,4.16
2019-02-12T23:22:18.294Z,4.10
2019-02-12T23:23:19.682Z,4.17
2019-02-12T23:24:21.063Z,4.26
2019-02-12T23:25:22.450Z,4.18
2019-02-12T23:26:23.844Z,4.24
2019-02-12T23:27:25.224Z,4.25
2019-02-12T23:28:26.613Z,4.28
2019-02-12T23:29:28.002Z,4.26
2019-02-12T23:30:29.409Z,4.25
2019-02-12T23:31:30.792Z,4.28
2019-02-12T23:32:32.180Z,4.24
2019-02-12T23:33:33.574Z,4.26
2019-02-12T23:34:34.970Z,4.28
2019-02-12T23:35:36.354Z,4.28
2019-02-12T23:36:37.745Z,4.26
2019-02-12T23:37:39.122Z,4.32
2019-02-12T23:38:40.519Z,4.28
2019-02-12T23:39:41.923Z,4.38
2019-02-12T23:40:43.298Z,4.29
2019-02-12T23:41:44.692Z,4.29
2019-02-12T23:42:46.071Z,4.35
2019-02-12T23:43:47.458Z,4.38
2019-02-12T23:44:48.844Z,4.38
2019-02-12T23:45:50.231Z,4.42
2019-02-12T23:46:51.625Z,4.44
2019-02-12T23:47:53.014Z,4.46
2019-02-12T23:48:54.400Z,4.39
2019-02-12T23:49:55.796Z,4.39
2019-02-12T23:50:57.190Z,4.38
2019-02-12T23:51:58.579Z,4.46
2019-02-12T23:53:00.558Z,4.32
2019-02-12T23:54:01.931Z,4.47
2019-02-12T23:55:03.326Z,4.47
2019-02-12T23:56:04.722Z,4.43
2019-02-12T23:57:06.105Z,4.42
2019-02-12T23:58:07.487Z,4.46
2019-02-12T23:59:08.865Z,4.44
